createdAt,value
2018-02-27T00:00:01.827Z,-11.54
2018-02-27T00:00:06.067Z,-11.54
2018-02-27T00:00:10.088Z,-11.54
2018-02-27T00:00:14.139Z,-11.53
2018-02-27T00:00:18.271Z,-11.54
2018-02-27T00:00:22.519Z,-11.53
2018-02-27T00:00:26.763Z,-11.54
2018-02-27T00:00:30.799Z,-11.53
2018-02-27T00:00:34.834Z,-11.54
2018-02-27T00:00:38.969Z,-11.54
2018-02-27T00:00:42.976Z,-11.54
2018-02-27T00:00:46.995Z,-11.54
2018-02-27T00:00:51.027Z,-11.53
2018-02-27T00:00:55.157Z,-11.54
2018-02-27T00:00:59.178Z,-11.53
2018-02-27T00:01:03.325Z,-11.54
2018-02-27T00:01:07.338Z,-11.54
2018-02-27T00:01:11.348Z,-11.53
2018-02-27T00:01:15.480Z,-11.53
2018-02-27T00:01:19.518Z,-11.54
2018-02-27T00:01:23.642Z,-11.53
2018-02-27T00:01:27.758Z,-11.53
2018-02-27T00:01:32.024Z,-11.52
2018-02-27T00:01:36.047Z,-11.54
2018-02-27T00:01:40.212Z,-11.53
2018-02-27T00:01:44.659Z,-11.53
2018-02-27T00:01:48.702Z,-11.53
2018-02-27T00:01:52.938Z,-11.52
2018-02-27T00:01:56.988Z,-11.53
2018-02-27T00:02:01.008Z,-11.52
2018-02-27T00:02:05.451Z,-11.52
2018-02-27T00:02:09.578Z,-11.52
2018-02-27T00:02:13.593Z,-11.52
2018-02-27T00:02:17.930Z,-11.52
2018-02-27T00:02:21.941Z,-11.51
2018-02-27T00:02:26.059Z,-11.51
2018-02-27T00:02:30.079Z,-11.52
2018-02-27T00:02:34.446Z,-11.52
2018-02-27T00:02:38.482Z,-11.52
2018-02-27T00:02:42.489Z,-11.52
2018-02-27T00:02:46.506Z,-11.52
2018-02-27T00:02:50.530Z,-11.52
2018-02-27T00:02:54.662Z,-11.52
2018-02-27T00:02:58.790Z,-11.51
2018-02-27T00:03:03.173Z,-11.52
2018-02-27T00:03:07.197Z,-11.52
2018-02-27T00:03:11.109Z,-11.52
2018-02-27T00:03:15.220Z,-11.52
2018-02-27T00:03:19.508Z,-11.5
2018-02-27T00:03:23.537Z,-11.51
2018-02-27T00:03:27.444Z,-11.51
2018-02-27T00:03:31.563Z,-11.52
2018-02-27T00:03:35.695Z,-11.51
2018-02-27T00:03:39.715Z,-11.51
2018-02-27T00:03:43.850Z,-11.51
2018-02-27T00:03:47.765Z,-11.51
2018-02-27T00:03:52.099Z,-11.51
2018-02-27T00:03:56.126Z,-11.5
2018-02-27T00:04:00.143Z,-11.5
2018-02-27T00:04:04.632Z,-11.51
2018-02-27T00:04:08.998Z,-11.49
2018-02-27T00:04:13.330Z,-11.49
2018-02-27T00:04:17.676Z,-11.49
2018-02-27T00:04:21.927Z,-11.5
2018-02-27T00:04:26.072Z,-11.49
2018-02-27T00:04:30.098Z,-11.49
2018-02-27T00:04:34.116Z,-11.49
2018-02-27T00:04:38.351Z,-11.49
2018-02-27T00:04:42.389Z,-11.48
2018-02-27T00:04:46.628Z,-11.49
2018-02-27T00:04:50.545Z,-11.5
2018-02-27T00:04:54.355Z,-11.49
2018-02-27T00:04:58.498Z,-11.49
2018-02-27T00:05:02.813Z,-11.49
2018-02-27T00:05:06.838Z,-11.49
2018-02-27T00:05:10.868Z,-11.49
2018-02-27T00:05:14.687Z,-11.49
2018-02-27T00:05:18.932Z,-11.48
2018-02-27T00:05:23.285Z,-11.48
2018-02-27T00:05:27.481Z,-11.48
2018-02-27T00:05:31.714Z,-11.48
2018-02-27T00:05:35.825Z,-11.48
2018-02-27T00:05:40.065Z,-11.49
2018-02-27T00:05:44.092Z,-11.48
2018-02-27T00:05:48.440Z,-11.48
2018-02-27T00:05:52.672Z,-11.48
2018-02-27T00:05:56.678Z,-11.47
2018-02-27T00:06:00.926Z,-11.48
2018-02-27T00:06:04.829Z,-11.48
2018-02-27T00:06:08.951Z,-11.48
2018-02-27T00:06:13.287Z,-11.48
2018-02-27T00:06:17.568Z,-11.48
2018-02-27T00:06:21.822Z,-11.47
2018-02-27T00:06:25.963Z,-11.48
2018-02-27T00:06:29.976Z,-11.47
2018-02-27T00:06:33.999Z,-11.48
2018-02-27T00:06:38.221Z,-11.48
2018-02-27T00:06:42.367Z,-11.48
2018-02-27T00:06:46.616Z,-11.48
2018-02-27T00:06:50.742Z,-11.48
2018-02-27T00:06:54.976Z,-11.48
2018-02-27T00:06:59.116Z,-11.47
2018-02-27T00:07:03.462Z,-11.46
2018-02-27T00:07:07.704Z,-11.47
2018-02-27T00:07:12.044Z,-11.47
2018-02-27T00:07:16.190Z,-11.47
2018-02-27T00:07:20.123Z,-11.47
2018-02-27T00:07:24.152Z,-11.47
2018-02-27T00:07:28.403Z,-11.46
2018-02-27T00:07:32.540Z,-11.46
2018-02-27T00:07:36.659Z,-11.46
2018-02-27T00:07:40.693Z,-11.47
2018-02-27T00:07:44.722Z,-11.46
2018-02-27T00:07:48.749Z,-11.47
2018-02-27T00:07:52.675Z,-11.47
2018-02-27T00:07:56.834Z,-11.47
2018-02-27T00:08:00.635Z,-11.47
2018-02-27T00:08:05.127Z,-11.46
2018-02-27T00:08:09.148Z,-11.46
2018-02-27T00:08:12.977Z,-11.46
2018-02-27T00:08:17.098Z,-11.47
2018-02-27T00:08:21.462Z,-11.46
2018-02-27T00:08:25.583Z,-11.46
2018-02-27T00:08:29.496Z,-11.46
2018-02-27T00:08:33.633Z,-11.46
2018-02-27T00:08:37.667Z,-11.46
2018-02-27T00:08:41.788Z,-11.47
2018-02-27T00:08:46.028Z,-11.46
2018-02-27T00:08:50.064Z,-11.46
2018-02-27T00:08:53.868Z,-11.46
2018-02-27T00:08:58.005Z,-11.46
2018-02-27T00:09:02.124Z,-11.45
2018-02-27T00:09:06.357Z,-11.47
2018-02-27T00:09:10.373Z,-11.46
2018-02-27T00:09:14.513Z,-11.46
2018-02-27T00:09:18.751Z,-11.45
2018-02-27T00:09:22.989Z,-11.45
2018-02-27T00:09:27.080Z,-11.46
2018-02-27T00:09:31.093Z,-11.46
2018-02-27T00:09:35.340Z,-11.46
2018-02-27T00:09:39.367Z,-11.46
2018-02-27T00:09:43.382Z,-11.46
2018-02-27T00:09:47.503Z,-11.46
2018-02-27T00:09:51.412Z,-11.46
2018-02-27T00:09:55.226Z,-11.46
2018-02-27T00:09:59.131Z,-11.45
2018-02-27T00:10:03.252Z,-11.44
2018-02-27T00:10:07.275Z,-11.46
2018-02-27T00:10:11.523Z,-11.46
2018-02-27T00:10:15.324Z,-11.45
2018-02-27T00:10:19.353Z,-11.46
2018-02-27T00:10:23.481Z,-11.45
2018-02-27T00:10:27.856Z,-11.45
2018-02-27T00:10:31.885Z,-11.45
2018-02-27T00:10:36.139Z,-11.45
2018-02-27T00:10:40.381Z,-11.46
2018-02-27T00:10:44.511Z,-11.45
2018-02-27T00:10:48.757Z,-11.46
2018-02-27T00:10:52.788Z,-11.46
2018-02-27T00:10:56.820Z,-11.46
2018-02-27T00:11:00.840Z,-11.45
2018-02-27T00:11:04.861Z,-11.45
2018-02-27T00:11:08.899Z,-11.45
2018-02-27T00:11:12.917Z,-11.45
2018-02-27T00:11:17.155Z,-11.45
2018-02-27T00:11:21.499Z,-11.45
2018-02-27T00:11:25.624Z,-11.46
2018-02-27T00:11:29.762Z,-11.45
2018-02-27T00:11:33.897Z,-11.46
2018-02-27T00:11:38.249Z,-11.44
2018-02-27T00:11:42.272Z,-11.45
2018-02-27T00:11:46.299Z,-11.45
2018-02-27T00:11:50.437Z,-11.45
2018-02-27T00:11:54.801Z,-11.46
2018-02-27T00:11:59.060Z,-11.45
2018-02-27T00:12:03.228Z,-11.46
2018-02-27T00:12:07.459Z,-11.45
2018-02-27T00:12:11.489Z,-11.46
2018-02-27T00:12:15.745Z,-11.45
2018-02-27T00:12:19.983Z,-11.46
2018-02-27T00:12:24.232Z,-11.46
2018-02-27T00:12:28.374Z,-11.47
2018-02-27T00:12:32.281Z,-11.45
2018-02-27T00:12:36.210Z,-11.45
2018-02-27T00:12:40.339Z,-11.46
2018-02-27T00:12:44.373Z,-11.46
2018-02-27T00:12:48.386Z,-11.45
2018-02-27T00:12:52.423Z,-11.45
2018-02-27T00:12:56.334Z,-11.46
2018-02-27T00:13:00.343Z,-11.45
2018-02-27T00:13:04.150Z,-11.45
2018-02-27T00:13:08.069Z,-11.46
2018-02-27T00:13:12.301Z,-11.46
2018-02-27T00:13:16.116Z,-11.46
2018-02-27T00:13:20.134Z,-11.45
2018-02-27T00:13:24.261Z,-11.46
2018-02-27T00:13:28.593Z,-11.45
2018-02-27T00:13:32.616Z,-11.47
2018-02-27T00:13:36.629Z,-11.46
2018-02-27T00:13:40.758Z,-11.46
2018-02-27T00:13:45.004Z,-11.46
2018-02-27T00:13:49.127Z,-11.46
2018-02-27T00:13:53.139Z,-11.46
2018-02-27T00:13:57.381Z,-11.46
2018-02-27T00:14:01.409Z,-11.46
2018-02-27T00:14:05.425Z,-11.46
2018-02-27T00:14:09.537Z,-11.46
2018-02-27T00:14:13.657Z,-11.46
2018-02-27T00:14:17.443Z,-11.47
2018-02-27T00:14:21.680Z,-11.47
2018-02-27T00:14:25.812Z,-11.46
2018-02-27T00:14:29.758Z,-11.45
2018-02-27T00:14:33.990Z,-11.46
2018-02-27T00:14:37.906Z,-11.48
2018-02-27T00:14:41.823Z,-11.47
2018-02-27T00:14:45.956Z,-11.46
2018-02-27T00:14:50.090Z,-11.46
2018-02-27T00:14:54.118Z,-11.46
2018-02-27T00:14:58.136Z,-11.46
2018-02-27T00:15:02.464Z,-11.47
2018-02-27T00:15:06.371Z,-11.47
2018-02-27T00:15:10.516Z,-11.47
2018-02-27T00:15:14.639Z,-11.47
2018-02-27T00:15:18.543Z,-11.47
2018-02-27T00:15:22.772Z,-11.46
2018-02-27T00:15:26.900Z,-11.46
2018-02-27T00:15:31.117Z,-11.47
2018-02-27T00:15:35.350Z,-11.46
2018-02-27T00:15:39.571Z,-11.47
2018-02-27T00:15:43.502Z,-11.48
2018-02-27T00:15:47.643Z,-11.48
2018-02-27T00:15:51.551Z,-11.48
2018-02-27T00:15:55.680Z,-11.47
2018-02-27T00:15:59.920Z,-11.47
2018-02-27T00:16:04.175Z,-11.47
2018-02-27T00:16:08.300Z,-11.47
2018-02-27T00:16:12.327Z,-11.47
2018-02-27T00:16:16.334Z,-11.47
2018-02-27T00:16:20.231Z,-11.48
2018-02-27T00:16:24.484Z,-11.47
2018-02-27T00:16:28.737Z,-11.47
2018-02-27T00:16:32.952Z,-11.48
2018-02-27T00:16:37.180Z,-11.48
2018-02-27T00:16:41.303Z,-11.47
2018-02-27T00:16:45.329Z,-11.47
2018-02-27T00:16:49.331Z,-11.47
2018-02-27T00:16:53.569Z,-11.47
2018-02-27T00:16:57.589Z,-11.46
2018-02-27T00:17:01.914Z,-11.47
2018-02-27T00:17:05.833Z,-11.47
2018-02-27T00:17:10.192Z,-11.47
2018-02-27T00:17:14.331Z,-11.47
2018-02-27T00:17:18.566Z,-11.48
2018-02-27T00:17:22.796Z,-11.48
2018-02-27T00:17:26.846Z,-11.48
2018-02-27T00:17:30.784Z,-11.46
2018-02-27T00:17:35.131Z,-11.48
2018-02-27T00:17:39.148Z,-11.48
2018-02-27T00:17:43.398Z,-11.48
2018-02-27T00:17:47.650Z,-11.47
2018-02-27T00:17:51.890Z,-11.48
2018-02-27T00:17:55.916Z,-11.48
2018-02-27T00:17:59.844Z,-11.48
2018-02-27T00:18:04.112Z,-11.47
2018-02-27T00:18:08.354Z,-11.47
2018-02-27T00:18:12.709Z,-11.48
2018-02-27T00:18:16.842Z,-11.48
2018-02-27T00:18:21.064Z,-11.48
2018-02-27T00:18:25.090Z,-11.48
2018-02-27T00:18:28.901Z,-11.47
2018-02-27T00:18:33.036Z,-11.47
2018-02-27T00:18:37.391Z,-11.48
2018-02-27T00:18:41.517Z,-11.48
2018-02-27T00:18:45.434Z,-11.47
2018-02-27T00:18:49.464Z,-11.48
2018-02-27T00:18:53.803Z,-11.47
2018-02-27T00:18:58.038Z,-11.48
2018-02-27T00:19:02.292Z,-11.48
2018-02-27T00:19:06.529Z,-11.47
2018-02-27T00:19:10.577Z,-11.47
2018-02-27T00:19:14.817Z,-11.49
2018-02-27T00:19:18.747Z,-11.48
2018-02-27T00:19:23.130Z,-11.49
2018-02-27T00:19:26.991Z,-11.48
2018-02-27T00:19:31.014Z,-11.47
2018-02-27T00:19:35.164Z,-11.49
2018-02-27T00:19:39.393Z,-11.48
2018-02-27T00:19:43.530Z,-11.47
2018-02-27T00:19:47.439Z,-11.48
2018-02-27T00:19:51.362Z,-11.48
2018-02-27T00:19:55.389Z,-11.47
2018-02-27T00:19:59.186Z,-11.48
2018-02-27T00:20:03.224Z,-11.48
2018-02-27T00:20:07.581Z,-11.49
2018-02-27T00:20:11.917Z,-11.48
2018-02-27T00:20:16.036Z,-11.48
2018-02-27T00:20:20.057Z,-11.47
2018-02-27T00:20:24.303Z,-11.48
2018-02-27T00:20:28.546Z,-11.47
2018-02-27T00:20:32.577Z,-11.48
2018-02-27T00:20:36.483Z,-11.48
2018-02-27T00:20:40.610Z,-11.48
2018-02-27T00:20:44.624Z,-11.48
2018-02-27T00:20:48.761Z,-11.47
2018-02-27T00:20:52.811Z,-11.48
2018-02-27T00:20:56.942Z,-11.48
2018-02-27T00:21:00.955Z,-11.48
2018-02-27T00:21:05.116Z,-11.47
2018-02-27T00:21:09.190Z,-11.48
2018-02-27T00:21:13.332Z,-11.49
2018-02-27T00:21:17.367Z,-11.49
2018-02-27T00:21:21.508Z,-11.47
2018-02-27T00:21:25.754Z,-11.48
2018-02-27T00:21:30.115Z,-11.48
2018-02-27T00:21:34.243Z,-11.48
2018-02-27T00:21:38.387Z,-11.48
2018-02-27T00:21:42.520Z,-11.48
2018-02-27T00:21:46.541Z,-11.49
2018-02-27T00:21:50.560Z,-11.49
2018-02-27T00:21:54.685Z,-11.48
2018-02-27T00:21:58.609Z,-11.49
2018-02-27T00:22:02.832Z,-11.49
2018-02-27T00:22:06.855Z,-11.48
2018-02-27T00:22:11.007Z,-11.48
2018-02-27T00:22:15.248Z,-11.48
2018-02-27T00:22:19.602Z,-11.48
2018-02-27T00:22:23.834Z,-11.48
2018-02-27T00:22:27.851Z,-11.49
2018-02-27T00:22:31.990Z,-11.48
2018-02-27T00:22:35.913Z,-11.49
2018-02-27T00:22:40.136Z,-11.48
2018-02-27T00:22:44.501Z,-11.48
2018-02-27T00:22:48.733Z,-11.48
2018-02-27T00:22:52.755Z,-11.49
2018-02-27T00:22:56.996Z,-11.48
2018-02-27T00:23:01.016Z,-11.48
2018-02-27T00:23:05.458Z,-11.48
2018-02-27T00:23:09.481Z,-11.48
2018-02-27T00:23:13.281Z,-11.48
2018-02-27T00:23:17.309Z,-11.49
2018-02-27T00:23:21.556Z,-11.47
2018-02-27T00:23:25.797Z,-11.47
2018-02-27T00:23:30.036Z,-11.48
2018-02-27T00:23:34.168Z,-11.49
2018-02-27T00:23:38.294Z,-11.48
2018-02-27T00:23:42.306Z,-11.49
2018-02-27T00:23:46.434Z,-11.48
2018-02-27T00:23:50.687Z,-11.48
2018-02-27T00:23:54.715Z,-11.49
2018-02-27T00:23:58.751Z,-11.48
2018-02-27T00:24:02.772Z,-11.48
2018-02-27T00:24:07.133Z,-11.48
2018-02-27T00:24:11.155Z,-11.49
2018-02-27T00:24:15.278Z,-11.49
2018-02-27T00:24:19.521Z,-11.48
2018-02-27T00:24:23.855Z,-11.48
2018-02-27T00:24:27.772Z,-11.48
2018-02-27T00:24:31.680Z,-11.49
2018-02-27T00:24:35.898Z,-11.49
2018-02-27T00:24:40.034Z,-11.48
2018-02-27T00:24:44.153Z,-11.48
2018-02-27T00:24:48.386Z,-11.49
2018-02-27T00:24:52.412Z,-11.48
2018-02-27T00:24:56.545Z,-11.48
2018-02-27T00:25:00.803Z,-11.48
2018-02-27T00:25:04.606Z,-11.47
2018-02-27T00:25:08.996Z,-11.48
2018-02-27T00:25:12.909Z,-11.48
2018-02-27T00:25:16.924Z,-11.48
2018-02-27T00:25:21.055Z,-11.48
2018-02-27T00:25:25.178Z,-11.48
2018-02-27T00:25:29.105Z,-11.48
2018-02-27T00:25:33.235Z,-11.48
2018-02-27T00:25:37.364Z,-11.48
2018-02-27T00:25:41.494Z,-11.47
2018-02-27T00:25:45.642Z,-11.48
2018-02-27T00:25:50.000Z,-11.48
2018-02-27T00:25:54.251Z,-11.47
2018-02-27T00:25:58.497Z,-11.48
2018-02-27T00:26:02.625Z,-11.47
2018-02-27T00:26:06.788Z,-11.48
2018-02-27T00:26:10.915Z,-11.48
2018-02-27T00:26:15.104Z,-11.48
2018-02-27T00:26:19.339Z,-11.47
2018-02-27T00:26:23.570Z,-11.47
2018-02-27T00:26:27.809Z,-11.48
2018-02-27T00:26:32.165Z,-11.48
2018-02-27T00:26:36.307Z,-11.46
2018-02-27T00:26:40.436Z,-11.47
2018-02-27T00:26:44.452Z,-11.47
2018-02-27T00:26:48.791Z,-11.47
2018-02-27T00:26:52.926Z,-11.47
2018-02-27T00:26:56.966Z,-11.47
2018-02-27T00:27:01.204Z,-11.47
2018-02-27T00:27:05.542Z,-11.47
2018-02-27T00:27:09.667Z,-11.47
2018-02-27T00:27:13.793Z,-11.47
2018-02-27T00:27:17.940Z,-11.48
2018-02-27T00:27:22.073Z,-11.48
2018-02-27T00:27:26.412Z,-11.47
2018-02-27T00:27:30.476Z,-11.47
2018-02-27T00:27:34.404Z,-11.48
2018-02-27T00:27:38.649Z,-11.47
2018-02-27T00:27:42.780Z,-11.48
2018-02-27T00:27:47.079Z,-11.48
2018-02-27T00:27:51.206Z,-11.48
2018-02-27T00:27:55.443Z,-11.47
2018-02-27T00:27:59.581Z,-11.48
2018-02-27T00:28:03.934Z,-11.47
2018-02-27T00:28:08.187Z,-11.47
2018-02-27T00:28:12.308Z,-11.47
2018-02-27T00:28:16.344Z,-11.47
2018-02-27T00:28:20.476Z,-11.46
2018-02-27T00:28:24.497Z,-11.46
2018-02-27T00:28:28.510Z,-11.46
2018-02-27T00:28:32.513Z,-11.47
2018-02-27T00:28:36.745Z,-11.46
2018-02-27T00:28:40.871Z,-11.47
2018-02-27T00:28:44.783Z,-11.46
2018-02-27T00:28:48.802Z,-11.46
2018-02-27T00:28:52.982Z,-11.47
2018-02-27T00:28:57.162Z,-11.47
2018-02-27T00:29:01.082Z,-11.46
2018-02-27T00:29:05.330Z,-11.46
2018-02-27T00:29:09.484Z,-11.47
2018-02-27T00:29:13.776Z,-11.46
2018-02-27T00:29:18.125Z,-11.47
2018-02-27T00:29:22.264Z,-11.46
2018-02-27T00:29:26.449Z,-11.46
2018-02-27T00:29:30.362Z,-11.47
2018-02-27T00:29:34.607Z,-11.46
2018-02-27T00:29:38.843Z,-11.47
2018-02-27T00:29:42.858Z,-11.46
2018-02-27T00:29:47.111Z,-11.46
2018-02-27T00:29:51.125Z,-11.45
2018-02-27T00:29:55.151Z,-11.45
2018-02-27T00:29:59.058Z,-11.46
2018-02-27T00:30:03.229Z,-11.46
2018-02-27T00:30:07.284Z,-11.46
2018-02-27T00:30:11.311Z,-11.46
2018-02-27T00:30:15.559Z,-11.46
2018-02-27T00:30:19.698Z,-11.46
2018-02-27T00:30:23.933Z,-11.47
2018-02-27T00:30:28.175Z,-11.45
2018-02-27T00:30:32.413Z,-11.45
2018-02-27T00:30:36.429Z,-11.47
2018-02-27T00:30:40.459Z,-11.45
2018-02-27T00:30:44.475Z,-11.45
2018-02-27T00:30:48.503Z,-11.45
2018-02-27T00:30:52.517Z,-11.45
2018-02-27T00:30:56.426Z,-11.45
2018-02-27T00:31:00.439Z,-11.45
2018-02-27T00:31:04.602Z,-11.45
2018-02-27T00:31:08.857Z,-11.45
2018-02-27T00:31:12.682Z,-11.44
2018-02-27T00:31:16.996Z,-11.45
2018-02-27T00:31:21.144Z,-11.45
2018-02-27T00:31:25.488Z,-11.45
2018-02-27T00:31:29.722Z,-11.46
2018-02-27T00:31:33.753Z,-11.45
2018-02-27T00:31:37.887Z,-11.45
2018-02-27T00:31:42.258Z,-11.45
2018-02-27T00:31:46.606Z,-11.44
2018-02-27T00:31:50.852Z,-11.44
2018-02-27T00:31:55.225Z,-11.45
2018-02-27T00:31:59.150Z,-11.44
2018-02-27T00:32:03.064Z,-11.44
2018-02-27T00:32:07.199Z,-11.44
2018-02-27T00:32:11.321Z,-11.44
2018-02-27T00:32:15.453Z,-11.45
2018-02-27T00:32:19.486Z,-11.44
2018-02-27T00:32:23.716Z,-11.45
2018-02-27T00:32:27.965Z,-11.45
2018-02-27T00:32:31.879Z,-11.44
2018-02-27T00:32:36.052Z,-11.44
2018-02-27T00:32:39.971Z,-11.43
2018-02-27T00:32:44.231Z,-11.43
2018-02-27T00:32:48.370Z,-11.45
2018-02-27T00:32:52.394Z,-11.44
2018-02-27T00:32:56.635Z,-11.43
2018-02-27T00:33:00.877Z,-11.44
2018-02-27T00:33:05.215Z,-11.43
2018-02-27T00:33:09.261Z,-11.43
2018-02-27T00:33:13.186Z,-11.43
2018-02-27T00:33:17.198Z,-11.44
2018-02-27T00:33:21.434Z,-11.43
2018-02-27T00:33:25.684Z,-11.44
2018-02-27T00:33:29.825Z,-11.43
2018-02-27T00:33:33.841Z,-11.43
2018-02-27T00:33:37.970Z,-11.43
2018-02-27T00:33:42.192Z,-11.43
2018-02-27T00:33:46.527Z,-11.43
2018-02-27T00:33:50.762Z,-11.44
2018-02-27T00:33:54.801Z,-11.43
2018-02-27T00:33:58.731Z,-11.43
2018-02-27T00:34:02.814Z,-11.43
2018-02-27T00:34:06.956Z,-11.43
2018-02-27T00:34:10.995Z,-11.43
2018-02-27T00:34:15.254Z,-11.43
2018-02-27T00:34:19.270Z,-11.42
2018-02-27T00:34:23.390Z,-11.42
2018-02-27T00:34:27.308Z,-11.43
2018-02-27T00:34:31.229Z,-11.43
2018-02-27T00:34:35.356Z,-11.42
2018-02-27T00:34:39.281Z,-11.43
2018-02-27T00:34:43.409Z,-11.43
2018-02-27T00:34:47.434Z,-11.43
2018-02-27T00:34:51.581Z,-11.42
2018-02-27T00:34:55.623Z,-11.42
2018-02-27T00:34:59.636Z,-11.41
2018-02-27T00:35:03.879Z,-11.42
2018-02-27T00:35:08.030Z,-11.4
2018-02-27T00:35:12.274Z,-11.42
2018-02-27T00:35:16.287Z,-11.42
2018-02-27T00:35:20.649Z,-11.42
2018-02-27T00:35:24.773Z,-11.42
2018-02-27T00:35:28.677Z,-11.41
2018-02-27T00:35:32.593Z,-11.43
2018-02-27T00:35:36.728Z,-11.4
2018-02-27T00:35:40.646Z,-11.41
2018-02-27T00:35:44.676Z,-11.41
2018-02-27T00:35:48.797Z,-11.41
2018-02-27T00:35:53.048Z,-11.41
2018-02-27T00:35:57.185Z,-11.39
2018-02-27T00:36:01.211Z,-11.4
2018-02-27T00:36:05.500Z,-11.4
2018-02-27T00:36:09.616Z,-11.4
2018-02-27T00:36:13.844Z,-11.41
2018-02-27T00:36:17.754Z,-11.4
2018-02-27T00:36:21.789Z,-11.4
2018-02-27T00:36:25.918Z,-11.41
2018-02-27T00:36:30.071Z,-11.39
2018-02-27T00:36:34.100Z,-11.4
2018-02-27T00:36:38.335Z,-11.4
2018-02-27T00:36:42.489Z,-11.4
2018-02-27T00:36:46.488Z,-11.41
2018-02-27T00:36:50.613Z,-11.4
2018-02-27T00:36:54.870Z,-11.39
2018-02-27T00:36:58.886Z,-11.4
2018-02-27T00:37:03.335Z,-11.39
2018-02-27T00:37:07.477Z,-11.4
2018-02-27T00:37:11.621Z,-11.4
2018-02-27T00:37:15.746Z,-11.39
2018-02-27T00:37:19.879Z,-11.39
2018-02-27T00:37:24.028Z,-11.4
2018-02-27T00:37:28.052Z,-11.39
2018-02-27T00:37:32.188Z,-11.38
2018-02-27T00:37:36.313Z,-11.39
2018-02-27T00:37:40.233Z,-11.39
2018-02-27T00:37:44.459Z,-11.38
2018-02-27T00:37:48.485Z,-11.39
2018-02-27T00:37:52.514Z,-11.38
2018-02-27T00:37:56.561Z,-11.39
2018-02-27T00:38:00.791Z,-11.38
2018-02-27T00:38:04.803Z,-11.39
2018-02-27T00:38:08.934Z,-11.38
2018-02-27T00:38:13.046Z,-11.38
2018-02-27T00:38:17.188Z,-11.38
2018-02-27T00:38:21.320Z,-11.38
2018-02-27T00:38:25.333Z,-11.38
2018-02-27T00:38:29.480Z,-11.38
2018-02-27T00:38:33.523Z,-11.37
2018-02-27T00:38:37.656Z,-11.38
2018-02-27T00:38:41.514Z,-11.39
2018-02-27T00:38:45.645Z,-11.38
2018-02-27T00:38:49.561Z,-11.37
2018-02-27T00:38:53.793Z,-11.38
2018-02-27T00:38:58.044Z,-11.37
2018-02-27T00:39:02.318Z,-11.37
2018-02-27T00:39:06.472Z,-11.37
2018-02-27T00:39:10.585Z,-11.39
2018-02-27T00:39:14.997Z,-11.37
2018-02-27T00:39:19.125Z,-11.37
2018-02-27T00:39:23.248Z,-11.37
2018-02-27T00:39:27.194Z,-11.37
2018-02-27T00:39:31.236Z,-11.37
2018-02-27T00:39:35.496Z,-11.37
2018-02-27T00:39:39.610Z,-11.38
2018-02-27T00:39:43.804Z,-11.37
2018-02-27T00:39:47.841Z,-11.37
2018-02-27T00:39:52.103Z,-11.36
2018-02-27T00:39:56.232Z,-11.36
2018-02-27T00:40:00.575Z,-11.37
2018-02-27T00:40:04.711Z,-11.37
2018-02-27T00:40:08.746Z,-11.37
2018-02-27T00:40:12.990Z,-11.36
2018-02-27T00:40:17.019Z,-11.36
2018-02-27T00:40:21.168Z,-11.36
2018-02-27T00:40:25.408Z,-11.35
2018-02-27T00:40:29.537Z,-11.37
2018-02-27T00:40:33.865Z,-11.37
2018-02-27T00:40:38.205Z,-11.37
2018-02-27T00:40:42.328Z,-11.36
2018-02-27T00:40:46.573Z,-11.36
2018-02-27T00:40:50.802Z,-11.36
2018-02-27T00:40:55.030Z,-11.36
2018-02-27T00:40:59.173Z,-11.36
2018-02-27T00:41:03.307Z,-11.35
2018-02-27T00:41:07.225Z,-11.35
2018-02-27T00:41:11.466Z,-11.37
2018-02-27T00:41:15.702Z,-11.36
2018-02-27T00:41:19.935Z,-11.36
2018-02-27T00:41:24.058Z,-11.36
2018-02-27T00:41:28.075Z,-11.36
2018-02-27T00:41:32.107Z,-11.35
2018-02-27T00:41:36.234Z,-11.35
2018-02-27T00:41:40.255Z,-11.35
2018-02-27T00:41:44.381Z,-11.35
2018-02-27T00:41:48.729Z,-11.36
2018-02-27T00:41:52.880Z,-11.36
2018-02-27T00:41:57.102Z,-11.35
2018-02-27T00:42:01.128Z,-11.35
2018-02-27T00:42:05.414Z,-11.35
2018-02-27T00:42:09.651Z,-11.35
2018-02-27T00:42:13.802Z,-11.35
2018-02-27T00:42:18.137Z,-11.35
2018-02-27T00:42:22.156Z,-11.35
2018-02-27T00:42:26.386Z,-11.35
2018-02-27T00:42:30.417Z,-11.34
2018-02-27T00:42:34.482Z,-11.34
2018-02-27T00:42:38.401Z,-11.35
2018-02-27T00:42:42.534Z,-11.34
2018-02-27T00:42:46.757Z,-11.34
2018-02-27T00:42:50.896Z,-11.34
2018-02-27T00:42:55.240Z,-11.35
2018-02-27T00:42:59.373Z,-11.33
2018-02-27T00:43:03.502Z,-11.34
2018-02-27T00:43:07.308Z,-11.34
2018-02-27T00:43:11.529Z,-11.33
2018-02-27T00:43:15.562Z,-11.33
2018-02-27T00:43:19.379Z,-11.33
2018-02-27T00:43:23.189Z,-11.34
2018-02-27T00:43:27.309Z,-11.33
2018-02-27T00:43:31.354Z,-11.33
2018-02-27T00:43:35.588Z,-11.33
2018-02-27T00:43:39.716Z,-11.33
2018-02-27T00:43:43.749Z,-11.33
2018-02-27T00:43:47.882Z,-11.33
2018-02-27T00:43:51.809Z,-11.32
2018-02-27T00:43:56.054Z,-11.32
2018-02-27T00:44:00.206Z,-11.33
2018-02-27T00:44:04.287Z,-11.32
2018-02-27T00:44:08.202Z,-11.32
2018-02-27T00:44:12.484Z,-11.33
2018-02-27T00:44:16.728Z,-11.32
2018-02-27T00:44:20.748Z,-11.32
2018-02-27T00:44:24.886Z,-11.32
2018-02-27T00:44:28.946Z,-11.32
2018-02-27T00:44:32.965Z,-11.32
2018-02-27T00:44:37.203Z,-11.32
2018-02-27T00:44:41.236Z,-11.32
2018-02-27T00:44:45.359Z,-11.31
2018-02-27T00:44:49.589Z,-11.32
2018-02-27T00:44:53.925Z,-11.32
2018-02-27T00:44:58.048Z,-11.32
2018-02-27T00:45:02.080Z,-11.31
2018-02-27T00:45:05.996Z,-11.32
2018-02-27T00:45:10.250Z,-11.31
2018-02-27T00:45:14.254Z,-11.32
2018-02-27T00:45:18.492Z,-11.31
2018-02-27T00:45:22.744Z,-11.31
2018-02-27T00:45:26.989Z,-11.3
2018-02-27T00:45:31.066Z,-11.31
2018-02-27T00:45:35.195Z,-11.31
2018-02-27T00:45:39.544Z,-11.31
2018-02-27T00:45:43.676Z,-11.31
2018-02-27T00:45:47.799Z,-11.3
2018-02-27T00:45:52.144Z,-11.3
2018-02-27T00:45:56.178Z,-11.29
2018-02-27T00:46:00.300Z,-11.31
2018-02-27T00:46:04.440Z,-11.3
2018-02-27T00:46:08.791Z,-11.3
2018-02-27T00:46:13.023Z,-11.29
2018-02-27T00:46:17.161Z,-11.3
2018-02-27T00:46:21.411Z,-11.29
2018-02-27T00:46:25.650Z,-11.3
2018-02-27T00:46:29.779Z,-11.3
2018-02-27T00:46:33.694Z,-11.3
2018-02-27T00:46:37.700Z,-11.3
2018-02-27T00:46:41.832Z,-11.3
2018-02-27T00:46:45.962Z,-11.29
2018-02-27T00:46:50.001Z,-11.3
2018-02-27T00:46:53.918Z,-11.29
2018-02-27T00:46:57.957Z,-11.29
2018-02-27T00:47:02.219Z,-11.29
2018-02-27T00:47:06.471Z,-11.29
2018-02-27T00:47:10.607Z,-11.28
2018-02-27T00:47:14.726Z,-11.28
2018-02-27T00:47:18.851Z,-11.28
2018-02-27T00:47:22.979Z,-11.28
2018-02-27T00:47:27.227Z,-11.29
2018-02-27T00:47:31.365Z,-11.29
2018-02-27T00:47:35.494Z,-11.28
2018-02-27T00:47:39.399Z,-11.28
2018-02-27T00:47:43.415Z,-11.28
2018-02-27T00:47:47.785Z,-11.28
2018-02-27T00:47:52.165Z,-11.28
2018-02-27T00:47:56.297Z,-11.27
2018-02-27T00:48:00.430Z,-11.28
2018-02-27T00:48:04.465Z,-11.28
2018-02-27T00:48:08.832Z,-11.29
2018-02-27T00:48:12.973Z,-11.27
2018-02-27T00:48:17.105Z,-11.27
2018-02-27T00:48:21.345Z,-11.28
2018-02-27T00:48:25.370Z,-11.28
2018-02-27T00:48:29.164Z,-11.28
2018-02-27T00:48:33.523Z,-11.27
2018-02-27T00:48:37.439Z,-11.27
2018-02-27T00:48:41.669Z,-11.28
2018-02-27T00:48:45.696Z,-11.27
2018-02-27T00:48:49.795Z,-11.27
2018-02-27T00:48:54.215Z,-11.27
2018-02-27T00:48:58.249Z,-11.27
2018-02-27T00:49:02.591Z,-11.27
2018-02-27T00:49:06.614Z,-11.27
2018-02-27T00:49:10.853Z,-11.26
2018-02-27T00:49:15.212Z,-11.25
2018-02-27T00:49:19.456Z,-11.25
2018-02-27T00:49:23.683Z,-11.25
2018-02-27T00:49:27.712Z,-11.25
2018-02-27T00:49:31.863Z,-11.25
2018-02-27T00:49:35.990Z,-11.26
2018-02-27T00:49:39.919Z,-11.25
2018-02-27T00:49:44.045Z,-11.26
2018-02-27T00:49:48.275Z,-11.26
2018-02-27T00:49:52.313Z,-11.25
2018-02-27T00:49:56.332Z,-11.25
2018-02-27T00:50:00.468Z,-11.25
2018-02-27T00:50:04.699Z,-11.25
2018-02-27T00:50:08.610Z,-11.24
2018-02-27T00:50:12.843Z,-11.25
2018-02-27T00:50:17.090Z,-11.25
2018-02-27T00:50:21.017Z,-11.25
2018-02-27T00:50:25.251Z,-11.25
2018-02-27T00:50:29.284Z,-11.25
2018-02-27T00:50:33.420Z,-11.25
2018-02-27T00:50:37.656Z,-11.24
2018-02-27T00:50:41.891Z,-11.24
2018-02-27T00:50:46.023Z,-11.25
2018-02-27T00:50:50.269Z,-11.25
2018-02-27T00:50:54.422Z,-11.24
2018-02-27T00:50:58.548Z,-11.24
2018-02-27T00:51:02.724Z,-11.24
2018-02-27T00:51:06.958Z,-11.24
2018-02-27T00:51:11.105Z,-11.24
2018-02-27T00:51:15.253Z,-11.23
2018-02-27T00:51:19.618Z,-11.24
2018-02-27T00:51:23.757Z,-11.23
2018-02-27T00:51:27.991Z,-11.22
2018-02-27T00:51:32.149Z,-11.23